createdAt,value
2018-11-01T00:00:35.806Z,6.40
2018-11-01T00:03:04.019Z,6.50
2018-11-01T00:05:32.195Z,6.40
2018-11-01T00:08:00.391Z,6.40
2018-11-01T00:10:28.584Z,6.40
2018-11-01T00:12:57.002Z,6.40
2018-11-01T00:15:25.179Z,6.40
2018-11-01T00:17:53.383Z,6.50
2018-11-01T00:20:21.794Z,6.40
2018-11-01T00:22:50.002Z,6.40
2018-11-01T00:25:18.202Z,6.40
2018-11-01T00:27:46.405Z,6.50
2018-11-01T00:30:14.602Z,6.50
2018-11-01T00:32:42.789Z,6.50
2018-11-01T00:35:10.971Z,6.50
2018-11-01T00:37:39.158Z,6.50
2018-11-01T00:40:09.655Z,6.50
2018-11-01T00:42:37.842Z,6.60
2018-11-01T00:45:06.369Z,6.60
2018-11-01T00:47:34.993Z,6.60
2018-11-01T00:50:03.178Z,6.60
2018-11-01T00:52:31.374Z,6.60
2018-11-01T00:54:59.573Z,6.60
2018-11-01T00:57:28.014Z,6.60
2018-11-01T00:59:56.222Z,6.50
2018-11-01T01:02:24.402Z,6.50
2018-11-01T01:04:52.594Z,6.40
2018-11-01T01:07:20.780Z,6.40
2018-11-01T01:09:48.978Z,6.30
2018-11-01T01:12:17.163Z,6.40
2018-11-01T01:14:45.358Z,6.40
2018-11-01T01:17:13.547Z,6.40
2018-11-01T01:19:41.740Z,6.30
2018-11-01T01:22:09.938Z,6.40
2018-11-01T01:24:38.170Z,6.50
2018-11-01T01:27:06.347Z,6.60
2018-11-01T01:29:34.559Z,6.50
2018-11-01T01:32:02.778Z,6.50
2018-11-01T01:34:31.036Z,6.50
2018-11-01T01:36:59.419Z,6.50
2018-11-01T01:39:27.598Z,6.40
2018-11-01T01:41:55.791Z,6.40
2018-11-01T01:44:23.967Z,6.40
2018-11-01T01:46:52.536Z,6.40
2018-11-01T01:49:20.705Z,6.30
2018-11-01T01:51:48.894Z,6.30
2018-11-01T01:54:17.062Z,6.30
2018-11-01T01:56:45.251Z,6.40
2018-11-01T01:59:13.483Z,6.40
2018-11-01T02:01:41.670Z,6.40
2018-11-01T02:04:09.867Z,6.30
2018-11-01T02:06:38.062Z,6.30
2018-11-01T02:09:10.677Z,6.20
2018-11-01T02:11:39.520Z,6.20
2018-11-01T02:14:07.675Z,6.20
2018-11-01T02:16:35.863Z,6.20
2018-11-01T02:19:04.384Z,6.20
2018-11-01T02:21:32.614Z,6.10
2018-11-01T02:24:00.794Z,6.10
2018-11-01T02:26:28.998Z,6.10
2018-11-01T02:28:57.715Z,6.00
2018-11-01T02:31:25.944Z,6.00
2018-11-01T02:33:54.110Z,5.90
2018-11-01T02:36:22.523Z,5.90
2018-11-01T02:38:50.808Z,5.90
2018-11-01T02:41:18.888Z,5.70
2018-11-01T02:43:47.089Z,5.70
2018-11-01T02:46:15.291Z,5.60
2018-11-01T02:48:43.705Z,5.50
2018-11-01T02:51:11.899Z,5.60
2018-11-01T02:53:40.094Z,5.60
2018-11-01T02:56:08.302Z,5.50
2018-11-01T02:58:36.477Z,5.60
2018-11-01T03:01:04.663Z,5.50
2018-11-01T03:03:32.883Z,5.50
2018-11-01T03:06:01.279Z,5.50
2018-11-01T03:08:29.471Z,5.50
2018-11-01T03:10:57.651Z,5.50
2018-11-01T03:13:25.850Z,5.60
2018-11-01T03:15:54.246Z,5.50
2018-11-01T03:18:22.459Z,5.50
2018-11-01T03:20:50.871Z,5.50
2018-11-01T03:23:19.069Z,5.50
2018-11-01T03:25:47.259Z,5.50
2018-11-01T03:28:15.465Z,5.50
2018-11-01T03:30:43.640Z,5.50
2018-11-01T03:33:11.867Z,5.50
2018-11-01T03:35:40.090Z,5.50
2018-11-01T03:38:08.557Z,5.50
2018-11-01T03:40:36.891Z,5.50
2018-11-01T03:43:05.106Z,5.50
2018-11-01T03:45:33.524Z,5.50
2018-11-01T03:48:01.938Z,5.50
2018-11-01T03:50:30.141Z,5.50
2018-11-01T03:52:58.331Z,5.50
2018-11-01T03:55:26.756Z,5.40
2018-11-01T03:57:54.938Z,5.50
2018-11-01T04:00:23.128Z,5.50
2018-11-01T04:02:51.306Z,5.50
2018-11-01T04:05:19.734Z,5.50
2018-11-01T04:07:47.936Z,5.50
2018-11-01T04:10:16.346Z,5.50
2018-11-01T04:12:44.534Z,5.60
2018-11-01T04:15:13.843Z,5.60
2018-11-01T04:17:42.034Z,5.70
2018-11-01T04:20:11.552Z,5.60
2018-11-01T04:22:40.239Z,5.60
2018-11-01T04:25:08.479Z,5.60
2018-11-01T04:27:37.407Z,5.70
2018-11-01T04:30:06.359Z,5.70
2018-11-01T04:32:34.540Z,5.70
2018-11-01T04:35:02.794Z,5.70
2018-11-01T04:37:30.974Z,5.80
2018-11-01T04:39:59.597Z,5.80
2018-11-01T04:42:27.782Z,5.80
2018-11-01T04:44:55.993Z,5.90
2018-11-01T04:47:24.236Z,6.00
2018-11-01T04:49:52.371Z,6.00
2018-11-01T04:52:20.566Z,6.00
2018-11-01T04:54:48.744Z,6.00
2018-11-01T04:57:16.951Z,6.10
2018-11-01T04:59:45.125Z,6.10
2018-11-01T05:02:13.323Z,6.10
2018-11-01T05:04:41.515Z,6.20
2018-11-01T05:07:09.722Z,6.20
2018-11-01T05:09:37.923Z,6.10
2018-11-01T05:12:06.140Z,6.20
2018-11-01T05:14:34.555Z,6.20
2018-11-01T05:17:02.758Z,6.20
2018-11-01T05:19:30.955Z,6.20
2018-11-01T05:24:50.394Z,6.40
2018-11-01T05:27:18.598Z,6.40
2018-11-01T05:29:46.895Z,6.40
2018-11-01T05:32:15.106Z,6.50
2018-11-01T05:34:43.301Z,6.40
2018-11-01T05:37:11.473Z,6.40
2018-11-01T05:39:39.675Z,6.30
2018-11-01T05:42:07.884Z,6.30
2018-11-01T05:44:36.495Z,6.30
2018-11-01T05:47:04.822Z,6.40
2018-11-01T05:49:33.242Z,6.40
2018-11-01T05:52:01.425Z,6.30
2018-11-01T05:54:29.670Z,6.30
2018-11-01T05:56:57.853Z,6.40
2018-11-01T05:59:26.242Z,6.40
2018-11-01T06:02:00.102Z,6.50
2018-11-01T06:04:29.131Z,6.60
2018-11-01T06:06:57.337Z,6.60
2018-11-01T06:09:31.393Z,6.60
2018-11-01T06:11:59.626Z,6.60
2018-11-01T06:14:28.161Z,6.50
2018-11-01T06:16:56.723Z,6.60
2018-11-01T06:19:24.906Z,6.60
2018-11-01T06:21:53.086Z,6.60
2018-11-01T06:24:21.283Z,6.60
2018-11-01T06:26:49.492Z,6.60
2018-11-01T06:29:17.839Z,6.70
2018-11-01T06:31:46.030Z,6.80
2018-11-01T06:34:21.610Z,6.80
2018-11-01T06:36:49.815Z,6.70
2018-11-01T06:39:20.763Z,6.80
2018-11-01T06:41:50.367Z,6.70
2018-11-01T06:44:18.896Z,6.70
2018-11-01T06:46:47.182Z,6.70
2018-11-01T06:49:16.010Z,6.60
2018-11-01T06:51:44.228Z,6.60
2018-11-01T06:54:12.563Z,6.70
2018-11-01T06:56:40.787Z,6.70
2018-11-01T06:59:09.079Z,6.70
2018-11-01T07:01:37.170Z,6.70
2018-11-01T07:04:05.560Z,6.80
2018-11-01T07:06:34.066Z,6.80
2018-11-01T07:09:02.270Z,6.80
2018-11-01T07:11:30.487Z,6.90
2018-11-01T07:13:58.680Z,7.00
2018-11-01T07:16:26.865Z,7.10
2018-11-01T07:18:55.274Z,7.10
2018-11-01T07:21:23.459Z,7.20
2018-11-01T07:23:51.878Z,7.00
2018-11-01T07:26:20.101Z,6.90
2018-11-01T07:28:48.266Z,6.80
2018-11-01T07:31:16.471Z,6.90
2018-11-01T07:33:44.670Z,6.90
2018-11-01T07:36:12.860Z,7.00
2018-11-01T07:38:41.050Z,7.10
2018-11-01T07:41:09.230Z,7.20
2018-11-01T07:43:37.444Z,7.20
2018-11-01T07:46:05.625Z,7.30
2018-11-01T07:48:33.912Z,7.20
2018-11-01T07:51:02.027Z,7.30
2018-11-01T07:53:30.250Z,7.30
2018-11-01T07:55:58.442Z,7.30
2018-11-01T07:58:26.697Z,7.40
2018-11-01T08:00:54.819Z,7.40
2018-11-01T08:03:23.010Z,7.40
2018-11-01T08:05:51.251Z,7.40
2018-11-01T08:08:19.442Z,7.40
2018-11-01T08:10:48.089Z,7.30
2018-11-01T08:13:16.495Z,7.40
2018-11-01T08:15:45.128Z,7.40
2018-11-01T08:18:13.343Z,7.50
2018-11-01T08:20:41.578Z,7.60
2018-11-01T08:23:09.729Z,7.70
2018-11-01T08:25:37.945Z,7.80
2018-11-01T08:28:06.241Z,7.80
2018-11-01T08:30:34.385Z,7.90
2018-11-01T08:33:02.793Z,8.10
2018-11-01T08:35:31.067Z,8.10
2018-11-01T08:37:59.270Z,8.10
2018-11-01T08:40:27.490Z,8.10
2018-11-01T08:42:55.674Z,8.30
2018-11-01T08:45:23.874Z,8.30
2018-11-01T08:47:52.073Z,8.30
2018-11-01T08:50:20.287Z,8.40
2018-11-01T08:52:48.496Z,8.60
2018-11-01T08:55:16.735Z,8.60
2018-11-01T08:57:45.715Z,8.70
2018-11-01T09:00:14.423Z,8.70
2018-11-01T09:02:43.206Z,8.80
2018-11-01T09:05:12.211Z,8.90
2018-11-01T09:07:40.845Z,9.00
2018-11-01T09:10:11.347Z,9.00
2018-11-01T09:12:39.642Z,9.10
2018-11-01T09:15:09.267Z,9.20
2018-11-01T09:17:37.526Z,9.20
2018-11-01T09:20:06.582Z,9.30
2018-11-01T09:22:34.898Z,9.30
2018-11-01T09:25:03.106Z,9.20
2018-11-01T09:27:31.658Z,9.10
2018-11-01T09:29:59.850Z,9.10
2018-11-01T09:32:28.086Z,9.10
2018-11-01T09:34:56.339Z,9.00
2018-11-01T09:37:24.799Z,9.00
2018-11-01T09:39:53.306Z,9.10
2018-11-01T09:42:21.506Z,9.20
2018-11-01T09:44:49.697Z,9.30
2018-11-01T09:47:18.234Z,9.30
2018-11-01T09:49:46.111Z,9.30
2018-11-01T09:52:14.734Z,9.20
2018-11-01T09:54:42.922Z,8.90
2018-11-01T09:57:11.147Z,8.90
2018-11-01T09:59:39.565Z,8.80
2018-11-01T10:02:07.771Z,8.80
2018-11-01T10:04:35.991Z,8.80
2018-11-01T10:07:04.290Z,8.60
2018-11-01T10:09:32.471Z,8.60
2018-11-01T10:12:00.678Z,8.60
2018-11-01T10:14:28.869Z,8.70
2018-11-01T10:16:57.244Z,8.90
2018-11-01T10:19:25.271Z,9.00
2018-11-01T10:21:53.586Z,9.10
2018-11-01T10:24:21.698Z,9.40
2018-11-01T10:26:49.925Z,9.80
2018-11-01T10:29:18.109Z,10.10
2018-11-01T10:31:47.912Z,10.20
2018-11-01T10:34:16.116Z,10.30
2018-11-01T10:36:44.346Z,10.20
2018-11-01T10:39:12.755Z,10.20
2018-11-01T10:41:40.999Z,10.10
2018-11-01T10:44:13.584Z,10.10
2018-11-01T10:46:49.973Z,10.10
2018-11-01T10:49:18.728Z,10.10
2018-11-01T10:51:49.641Z,10.10
2018-11-01T10:54:18.180Z,10.10
2018-11-01T10:56:48.007Z,10.10
2018-11-01T10:59:16.397Z,10.10
2018-11-01T11:01:51.244Z,10.10
2018-11-01T11:04:19.684Z,10.00
2018-11-01T11:06:47.879Z,10.00
2018-11-01T11:09:16.446Z,10.10
2018-11-01T11:11:44.667Z,10.20
2018-11-01T11:14:12.887Z,10.30
2018-11-01T11:16:41.110Z,10.40
2018-11-01T11:19:09.339Z,10.30
2018-11-01T11:21:37.558Z,10.50
2018-11-01T11:24:05.821Z,10.50
2018-11-01T11:26:34.032Z,10.50
2018-11-01T11:29:02.590Z,10.40
2018-11-01T11:31:30.827Z,10.50
2018-11-01T11:33:59.031Z,10.50
2018-11-01T11:36:27.279Z,10.50
2018-11-01T11:38:55.786Z,10.60
2018-11-01T11:41:24.460Z,10.60
2018-11-01T11:43:52.703Z,10.60
2018-11-01T11:46:21.118Z,10.70
2018-11-01T11:48:49.812Z,10.70
2018-11-01T11:51:18.511Z,10.80
2018-11-01T11:53:46.667Z,11.00
2018-11-01T11:56:14.858Z,11.00
2018-11-01T11:58:43.081Z,11.10
2018-11-01T12:01:11.287Z,11.10
2018-11-01T12:03:39.746Z,11.10
2018-11-01T12:06:08.088Z,11.20
2018-11-01T12:08:36.208Z,11.20
2018-11-01T12:11:05.410Z,11.30
2018-11-01T12:13:33.647Z,11.30
2018-11-01T12:16:01.849Z,11.30
2018-11-01T12:18:30.074Z,11.40
2018-11-01T12:20:58.280Z,11.40
2018-11-01T12:23:26.495Z,11.40
2018-11-01T12:25:54.757Z,11.30
2018-11-01T12:28:23.039Z,11.20
2018-11-01T12:30:51.433Z,11.20
2018-11-01T12:33:20.094Z,11.10
2018-11-01T12:35:48.622Z,11.30
2018-11-01T12:38:16.821Z,11.60
2018-11-01T12:40:45.039Z,12.00
2018-11-01T12:43:13.260Z,12.10
2018-11-01T12:45:41.696Z,12.20
2018-11-01T12:48:09.930Z,12.00
2018-11-01T12:50:38.134Z,11.80
2018-11-01T12:53:06.350Z,11.60
2018-11-01T12:55:34.606Z,11.60
2018-11-01T12:58:02.806Z,11.60
2018-11-01T13:00:31.028Z,11.60
2018-11-01T13:02:59.463Z,11.70
2018-11-01T13:05:27.648Z,11.70
2018-11-01T13:07:55.872Z,11.60
2018-11-01T13:10:24.066Z,11.70
2018-11-01T13:12:52.275Z,11.70
2018-11-01T13:15:20.807Z,11.80
2018-11-01T13:17:49.069Z,11.70
2018-11-01T13:20:17.210Z,11.60
2018-11-01T13:22:45.415Z,11.60
2018-11-01T13:25:13.618Z,11.60
2018-11-01T13:27:41.836Z,11.60
2018-11-01T13:30:12.370Z,11.60
2018-11-01T13:32:41.193Z,11.70
2018-11-01T13:35:09.647Z,11.70
2018-11-01T13:37:37.883Z,11.70
2018-11-01T13:40:06.591Z,11.60
2018-11-01T13:42:34.478Z,11.70
2018-11-01T13:45:02.688Z,11.60
2018-11-01T13:47:30.987Z,11.60
2018-11-01T13:49:59.136Z,11.60
2018-11-01T13:52:27.351Z,11.60
2018-11-01T13:54:55.565Z,11.70
2018-11-01T13:57:23.895Z,11.70
2018-11-01T13:59:52.089Z,11.80
2018-11-01T14:02:20.291Z,11.70
2018-11-01T14:04:48.516Z,11.70
2018-11-01T14:07:16.706Z,11.70
2018-11-01T14:09:44.903Z,11.70
2018-11-01T14:12:13.112Z,11.70
2018-11-01T14:14:41.610Z,11.70
2018-11-01T14:17:09.515Z,11.60
2018-11-01T14:19:37.708Z,11.50
2018-11-01T14:22:05.919Z,11.60
2018-11-01T14:24:34.106Z,11.60
2018-11-01T14:27:02.374Z,11.60
2018-11-01T14:29:30.786Z,11.60
2018-11-01T14:31:59.238Z,11.50
2018-11-01T14:34:27.438Z,11.50
2018-11-01T14:36:55.678Z,11.40
2018-11-01T14:39:23.889Z,11.50
2018-11-01T14:41:52.346Z,11.40
2018-11-01T14:44:20.595Z,11.40
2018-11-01T14:46:48.779Z,11.40
2018-11-01T14:49:17.045Z,11.40
2018-11-01T14:51:45.400Z,11.20
2018-11-01T14:54:14.310Z,11.20
2018-11-01T14:56:42.696Z,11.20
2018-11-01T15:02:00.554Z,11.20
2018-11-01T15:04:28.854Z,11.30
2018-11-01T15:06:57.254Z,11.20
2018-11-01T15:09:25.447Z,11.00
2018-11-01T15:11:53.631Z,10.90
2018-11-01T15:14:21.813Z,10.80
2018-11-01T15:16:49.985Z,10.70
2018-11-01T15:19:18.563Z,10.50
2018-11-01T15:21:46.634Z,10.40
2018-11-01T15:24:14.815Z,10.40
2018-11-01T15:26:42.973Z,10.30
2018-11-01T15:29:11.165Z,10.20
2018-11-01T15:31:39.570Z,10.00
2018-11-01T15:34:08.530Z,9.80
2018-11-01T15:36:36.947Z,9.60
2018-11-01T15:39:07.644Z,9.40
2018-11-01T15:41:36.005Z,9.40
2018-11-01T15:44:04.222Z,9.30
2018-11-01T15:46:32.621Z,9.20
2018-11-01T15:49:00.801Z,9.10
2018-11-01T15:51:28.968Z,8.90
2018-11-01T15:53:57.152Z,8.90
2018-11-01T15:56:25.388Z,8.80
2018-11-01T15:58:53.541Z,8.90
2018-11-01T16:01:21.722Z,8.80
2018-11-01T16:03:49.912Z,8.80
2018-11-01T16:06:18.132Z,8.70
2018-11-01T16:08:46.431Z,8.60
2018-11-01T16:11:14.599Z,8.50
2018-11-01T16:13:42.773Z,8.50
2018-11-01T16:16:10.957Z,8.40
2018-11-01T16:18:39.173Z,8.30
2018-11-01T16:21:07.316Z,8.20
2018-11-01T16:23:35.710Z,8.10
2018-11-01T16:26:04.098Z,8.10
2018-11-01T16:28:32.607Z,8.10
2018-11-01T16:31:00.801Z,8.00
2018-11-01T16:33:28.991Z,7.90
2018-11-01T16:35:57.190Z,7.90
2018-11-01T16:38:25.388Z,7.90
2018-11-01T16:40:53.575Z,7.80
2018-11-01T16:43:21.761Z,7.80
2018-11-01T16:45:49.937Z,7.80
2018-11-01T16:48:18.145Z,7.70
2018-11-01T16:50:46.490Z,7.70
2018-11-01T16:53:14.650Z,7.70
2018-11-01T16:55:42.829Z,7.70
2018-11-01T16:58:11.005Z,7.70
2018-11-01T17:00:39.341Z,7.70
2018-11-01T17:03:07.378Z,7.80
2018-11-01T17:05:35.537Z,7.70
2018-11-01T17:08:03.754Z,7.80
2018-11-01T17:10:31.913Z,7.80
2018-11-01T17:13:00.101Z,7.80
2018-11-01T17:15:28.263Z,7.70
2018-11-01T17:17:56.435Z,7.60
2018-11-01T17:20:24.609Z,7.60
2018-11-01T17:22:52.777Z,7.70
2018-11-01T17:25:21.393Z,7.60
2018-11-01T17:27:49.781Z,7.60
2018-11-01T17:30:17.974Z,7.60
2018-11-01T17:32:51.847Z,7.60
2018-11-01T17:35:20.023Z,7.60
2018-11-01T17:37:48.454Z,7.60
2018-11-01T17:40:16.684Z,7.70
2018-11-01T17:42:45.701Z,7.70
2018-11-01T17:45:13.901Z,7.70
2018-11-01T17:47:42.439Z,7.80
2018-11-01T17:50:12.441Z,7.80
2018-11-01T17:52:41.105Z,7.90
2018-11-01T17:55:09.518Z,8.00
2018-11-01T17:57:38.180Z,7.90
2018-11-01T18:00:08.709Z,7.90
2018-11-01T18:02:36.954Z,7.90
2018-11-01T18:05:05.765Z,7.90
2018-11-01T18:07:34.167Z,8.00
2018-11-01T18:10:02.398Z,8.10
2018-11-01T18:12:31.107Z,8.10
2018-11-01T18:14:59.306Z,8.10
2018-11-01T18:17:27.507Z,8.10
2018-11-01T18:19:55.702Z,8.10
2018-11-01T18:22:24.124Z,8.10
2018-11-01T18:24:52.322Z,8.20
2018-11-01T18:27:20.542Z,8.10
2018-11-01T18:29:48.725Z,8.10
2018-11-01T18:32:16.916Z,8.10
2018-11-01T18:34:45.241Z,8.10
2018-11-01T18:37:13.294Z,8.20
2018-11-01T18:39:41.564Z,8.20
2018-11-01T18:42:09.754Z,8.20
2018-11-01T18:44:38.042Z,8.30
2018-11-01T18:47:06.484Z,8.30
2018-11-01T18:49:34.718Z,8.40
2018-11-01T18:52:03.214Z,8.40
2018-11-01T18:54:31.434Z,8.50
2018-11-01T18:56:59.598Z,8.40
2018-11-01T18:59:28.028Z,8.50
2018-11-01T19:01:56.418Z,8.50
2018-11-01T19:04:24.613Z,8.50
2018-11-01T19:06:52.882Z,8.50
2018-11-01T19:09:21.008Z,8.50
2018-11-01T19:11:49.325Z,8.60
2018-11-01T19:14:17.617Z,8.60
2018-11-01T19:16:46.133Z,8.60
2018-11-01T19:19:14.302Z,8.60
2018-11-01T19:21:42.526Z,8.60
2018-11-01T19:24:10.681Z,8.70
2018-11-01T19:26:39.345Z,8.70
2018-11-01T19:29:07.460Z,8.60
2018-11-01T19:31:35.869Z,8.50
2018-11-01T19:34:04.159Z,8.40
2018-11-01T19:36:32.542Z,8.40
2018-11-01T19:39:00.770Z,8.30
2018-11-01T19:41:28.951Z,8.20
2018-11-01T19:43:57.126Z,8.20
2018-11-01T19:46:25.322Z,8.30
2018-11-01T19:48:53.521Z,8.20
2018-11-01T19:51:21.932Z,8.10
2018-11-01T19:53:50.120Z,8.20
2018-11-01T19:56:18.310Z,8.10
2018-11-01T19:58:46.492Z,8.10
2018-11-01T20:01:14.707Z,8.10
2018-11-01T20:03:42.886Z,8.10
2018-11-01T20:06:11.734Z,8.00
2018-11-01T20:08:40.007Z,8.00
2018-11-01T20:11:08.102Z,7.90
2018-11-01T20:13:36.331Z,7.80
2018-11-01T20:16:04.513Z,7.80
2018-11-01T20:18:32.708Z,7.80
2018-11-01T20:21:00.899Z,7.80
2018-11-01T20:23:29.090Z,7.80
2018-11-01T20:25:57.294Z,7.80
2018-11-01T20:28:26.625Z,7.80
2018-11-01T20:30:54.835Z,7.70
2018-11-01T20:33:23.116Z,7.70
2018-11-01T20:35:51.294Z,7.70
2018-11-01T20:38:19.474Z,7.70
2018-11-01T20:40:47.678Z,7.70
2018-11-01T20:43:16.004Z,7.80
2018-11-01T20:45:44.171Z,7.70
2018-11-01T20:48:12.349Z,7.70
2018-11-01T20:50:40.545Z,7.70
2018-11-01T20:53:08.720Z,7.70
2018-11-01T20:55:36.902Z,7.80
2018-11-01T20:58:05.182Z,7.70
2018-11-01T21:00:33.373Z,7.60
2018-11-01T21:03:01.550Z,7.50
2018-11-01T21:05:29.726Z,7.40
2018-11-01T21:07:57.900Z,7.40
2018-11-01T21:10:26.083Z,7.40
2018-11-01T21:12:54.255Z,7.50
2018-11-01T21:15:22.689Z,7.40
2018-11-01T21:17:50.829Z,7.40
2018-11-01T21:20:19.222Z,7.40
2018-11-01T21:22:47.408Z,7.40
2018-11-01T21:25:15.603Z,7.40
2018-11-01T21:27:44.013Z,7.40
2018-11-01T21:30:12.207Z,7.40
2018-11-01T21:32:40.418Z,7.50
2018-11-01T21:35:08.668Z,7.50
2018-11-01T21:37:36.825Z,7.50
2018-11-01T21:40:07.045Z,7.60
2018-11-01T21:42:35.221Z,7.60
2018-11-01T21:45:03.428Z,7.60
2018-11-01T21:47:31.597Z,7.50
2018-11-01T21:49:59.786Z,7.50
2018-11-01T21:52:27.971Z,7.40
2018-11-01T21:54:56.478Z,7.40
2018-11-01T21:57:24.736Z,7.40
2018-11-01T21:59:52.917Z,7.40
2018-11-01T22:02:21.098Z,7.40
2018-11-01T22:04:49.269Z,7.30
2018-11-01T22:07:17.460Z,7.30
2018-11-01T22:09:48.031Z,7.20
2018-11-01T22:12:16.214Z,7.10
2018-11-01T22:14:44.450Z,7.10
2018-11-01T22:17:12.888Z,7.10
2018-11-01T22:19:41.079Z,7.00
2018-11-01T22:22:09.268Z,7.00
2018-11-01T22:24:38.005Z,6.90
2018-11-01T22:27:06.230Z,6.90
2018-11-01T22:29:34.848Z,7.00
2018-11-01T22:32:03.065Z,6.90
2018-11-01T22:34:31.266Z,6.90
2018-11-01T22:36:59.453Z,7.00
2018-11-01T22:39:27.614Z,7.00
2018-11-01T22:41:55.790Z,7.10
2018-11-01T22:44:24.209Z,7.10
2018-11-01T22:46:52.419Z,7.10
2018-11-01T22:49:20.593Z,7.10
2018-11-01T22:51:48.860Z,7.10
2018-11-01T22:54:16.970Z,7.10
2018-11-01T22:56:45.393Z,7.00
2018-11-01T22:59:13.562Z,7.00
2018-11-01T23:01:41.742Z,7.00
2018-11-01T23:04:09.893Z,7.00
2018-11-01T23:06:38.097Z,6.90
2018-11-01T23:09:08.494Z,7.00
2018-11-01T23:11:37.027Z,6.90
2018-11-01T23:14:05.459Z,7.00
2018-11-01T23:16:34.235Z,7.00
2018-11-01T23:19:02.421Z,6.90
2018-11-01T23:21:30.645Z,6.90
2018-11-01T23:23:58.855Z,6.90
2018-11-01T23:26:27.069Z,6.80
2018-11-01T23:28:55.203Z,6.90
2018-11-01T23:31:23.375Z,6.90
2018-11-01T23:33:51.551Z,6.90
2018-11-01T23:36:19.013Z,7.00
2018-11-01T23:38:52.605Z,6.90
2018-11-01T23:41:26.268Z,6.90
2018-11-01T23:43:59.912Z,6.90
2018-11-01T23:46:33.563Z,6.90
2018-11-01T23:49:06.590Z,6.90
2018-11-01T23:51:34.758Z,6.90
2018-11-01T23:54:02.955Z,6.90
2018-11-01T23:56:31.141Z,6.80
2018-11-01T23:58:59.561Z,6.80
